createdAt,value
2023-05-15T00:02:35.811Z,13.73
2023-05-15T00:05:38.140Z,13.76
2023-05-15T00:08:40.632Z,13.73
2023-05-15T00:11:42.847Z,13.64
2023-05-15T00:14:45.083Z,13.58
2023-05-15T00:17:47.341Z,13.60
2023-05-15T00:20:49.635Z,13.60
2023-05-15T00:23:54.077Z,13.57
2023-05-15T00:26:56.347Z,13.57
2023-05-15T00:29:58.606Z,13.60
2023-05-15T00:33:00.889Z,13.52
2023-05-15T00:36:03.286Z,13.56
2023-05-15T00:39:05.530Z,13.48
2023-05-15T00:42:08.535Z,13.60
2023-05-15T00:45:11.512Z,13.51
2023-05-15T00:48:14.037Z,13.55
2023-05-15T00:51:17.267Z,13.57
2023-05-15T00:54:20.005Z,13.61
2023-05-15T00:57:24.135Z,13.72
2023-05-15T01:00:26.600Z,13.64
2023-05-15T01:03:29.309Z,13.61
2023-05-15T01:06:31.952Z,13.63
2023-05-15T01:09:36.597Z,13.70
2023-05-15T01:12:40.607Z,13.81
2023-05-15T01:15:43.976Z,13.87
2023-05-15T01:18:46.934Z,13.79
2023-05-15T01:22:13.693Z,13.80
2023-05-15T01:25:31.142Z,13.80
2023-05-15T01:28:38.350Z,13.82
2023-05-15T01:31:42.504Z,13.82
2023-05-15T01:34:53.709Z,13.86
2023-05-15T01:38:09.584Z,13.91
2023-05-15T01:41:14.989Z,13.87
2023-05-15T01:44:22.080Z,13.89
2023-05-15T01:47:43.619Z,13.73
2023-05-15T01:50:46.055Z,13.85
2023-05-15T01:53:49.972Z,13.78
2023-05-15T01:56:54.517Z,13.72
2023-05-15T01:59:58.414Z,13.72
2023-05-15T02:03:01.185Z,13.72
2023-05-15T02:06:05.160Z,13.80
2023-05-15T02:09:07.896Z,13.76
2023-05-15T02:12:11.066Z,13.63
2023-05-15T02:15:13.444Z,13.49
2023-05-15T02:18:16.187Z,13.47
2023-05-15T02:21:18.474Z,13.49
2023-05-15T02:24:20.784Z,13.49
2023-05-15T02:27:27.231Z,13.58
2023-05-15T02:30:39.032Z,13.56
2023-05-15T02:33:48.890Z,13.65
2023-05-15T02:36:53.399Z,13.59
2023-05-15T02:39:58.143Z,13.66
2023-05-15T02:43:00.588Z,13.67
2023-05-15T02:46:03.855Z,13.70
2023-05-15T02:49:06.232Z,13.79
2023-05-15T02:52:08.566Z,13.79
2023-05-15T02:55:10.875Z,13.80
2023-05-15T02:58:13.337Z,13.84
2023-05-15T03:01:16.115Z,13.91
2023-05-15T03:04:18.607Z,13.83
2023-05-15T03:07:20.889Z,13.83
2023-05-15T03:10:24.206Z,13.83
2023-05-15T03:13:26.432Z,13.90
2023-05-15T03:16:29.138Z,13.94
2023-05-15T03:19:32.134Z,13.98
2023-05-15T03:22:34.533Z,13.91
2023-05-15T03:25:36.850Z,13.88
2023-05-15T03:28:40.533Z,13.89
2023-05-15T03:31:43.979Z,13.99
2023-05-15T03:34:46.425Z,13.93
2023-05-15T03:37:48.641Z,13.94
2023-05-15T03:40:51.268Z,13.98
2023-05-15T03:43:53.671Z,14.01
2023-05-15T03:46:56.118Z,14.04
2023-05-15T03:49:58.512Z,13.88
2023-05-15T03:53:00.924Z,13.93
2023-05-15T03:56:03.664Z,13.95
2023-05-15T03:59:05.936Z,13.97
2023-05-15T04:02:08.258Z,14.00
2023-05-15T04:05:10.958Z,14.04
2023-05-15T04:08:13.303Z,13.93
2023-05-15T04:11:16.576Z,14.02
2023-05-15T04:14:18.957Z,14.06
2023-05-15T04:17:21.334Z,14.11
2023-05-15T04:20:24.989Z,14.14
2023-05-15T04:23:27.303Z,14.16
2023-05-15T04:26:29.632Z,14.12
2023-05-15T04:29:31.895Z,14.20
2023-05-15T04:32:34.733Z,14.17
2023-05-15T04:35:37.023Z,14.27
2023-05-15T04:38:39.321Z,14.25
2023-05-15T04:41:41.596Z,14.27
2023-05-15T04:44:44.822Z,14.40
2023-05-15T04:47:47.231Z,14.48
2023-05-15T04:50:49.715Z,14.47
2023-05-15T04:53:51.982Z,14.55
2023-05-15T04:56:54.466Z,14.61
2023-05-15T04:59:58.147Z,14.66
2023-05-15T05:03:00.657Z,14.72
2023-05-15T05:06:03.094Z,14.71
2023-05-15T05:09:05.379Z,14.65
2023-05-15T05:12:08.388Z,14.78
2023-05-15T05:15:10.809Z,14.84
2023-05-15T05:18:13.172Z,14.83
2023-05-15T05:21:15.411Z,14.81
2023-05-15T05:24:17.747Z,14.81
2023-05-15T05:27:19.977Z,14.92
2023-05-15T05:30:22.476Z,14.99
2023-05-15T05:33:24.816Z,14.97
2023-05-15T05:36:27.086Z,14.88
2023-05-15T05:39:29.367Z,14.96
2023-05-15T05:42:31.684Z,15.07
2023-05-15T05:45:34.050Z,15.08
2023-05-15T05:48:36.576Z,15.08
2023-05-15T05:51:39.256Z,15.02
2023-05-15T05:54:41.982Z,15.05
2023-05-15T05:57:44.302Z,15.02
2023-05-15T06:00:46.730Z,14.99
2023-05-15T06:03:49.185Z,14.91
2023-05-15T06:06:51.625Z,14.88
2023-05-15T06:09:53.998Z,15.00
2023-05-15T06:12:56.387Z,15.11
2023-05-15T06:15:58.594Z,15.25
2023-05-15T06:19:01.168Z,15.46
2023-05-15T06:22:04.005Z,15.60
2023-05-15T06:25:07.291Z,15.69
2023-05-15T06:28:09.470Z,15.72
2023-05-15T06:31:11.744Z,15.79
2023-05-15T06:34:13.958Z,15.86
2023-05-15T06:37:16.433Z,15.83
2023-05-15T06:40:21.206Z,15.87
2023-05-15T06:43:23.432Z,15.91
2023-05-15T06:46:25.790Z,15.96
2023-05-15T06:49:35.457Z,16.02
2023-05-15T06:52:37.714Z,16.03
2023-05-15T06:55:39.971Z,15.97
2023-05-15T06:58:42.298Z,16.08
2023-05-15T07:01:44.717Z,16.08
2023-05-15T07:04:49.449Z,16.27
2023-05-15T07:07:52.245Z,16.63
2023-05-15T07:10:54.544Z,16.70
2023-05-15T07:13:57.632Z,16.65
2023-05-15T07:16:59.926Z,16.69
2023-05-15T07:20:02.285Z,16.55
2023-05-15T07:23:05.237Z,16.71
2023-05-15T07:26:11.912Z,16.80
2023-05-15T07:29:16.507Z,16.89
2023-05-15T07:32:18.830Z,16.99
2023-05-15T07:35:21.176Z,17.10
2023-05-15T07:38:24.091Z,17.28
2023-05-15T07:41:26.513Z,17.70
2023-05-15T07:44:28.732Z,17.86
2023-05-15T07:47:30.989Z,17.67
2023-05-15T07:50:33.376Z,18.15
2023-05-15T07:53:38.474Z,18.60
2023-05-15T07:56:41.493Z,18.58
2023-05-15T07:59:43.745Z,18.27
2023-05-15T08:02:47.446Z,18.02
2023-05-15T08:05:49.764Z,17.98
2023-05-15T08:08:51.949Z,17.89
2023-05-15T08:11:57.527Z,17.73
2023-05-15T08:14:59.823Z,17.79
2023-05-15T08:18:02.223Z,17.74
2023-05-15T08:21:04.814Z,17.61
2023-05-15T08:24:07.406Z,17.66
2023-05-15T08:27:09.747Z,17.58
2023-05-15T08:30:12.669Z,17.67
2023-05-15T08:33:15.105Z,17.65
2023-05-15T08:36:19.774Z,17.76
2023-05-15T08:39:22.794Z,17.85
2023-05-15T08:42:30.117Z,17.78
2023-05-15T08:45:33.341Z,17.44
2023-05-15T08:48:37.465Z,17.52
2023-05-15T08:51:39.828Z,17.48
2023-05-15T08:54:42.636Z,17.50
2023-05-15T08:57:47.685Z,17.42
2023-05-15T09:00:50.073Z,17.54
2023-05-15T09:03:52.391Z,17.62
2023-05-15T09:06:54.950Z,17.71
2023-05-15T09:09:58.193Z,17.68
2023-05-15T09:13:02.418Z,17.75
2023-05-15T09:16:04.996Z,17.83
2023-05-15T09:19:07.784Z,18.12
2023-05-15T09:22:26.634Z,18.43
2023-05-15T09:25:37.697Z,18.70
2023-05-15T09:28:40.208Z,18.77
2023-05-15T09:31:43.862Z,19.03
2023-05-15T09:34:46.542Z,18.90
2023-05-15T09:37:57.913Z,18.77
2023-05-15T09:41:06.981Z,18.78
2023-05-15T09:44:21.437Z,19.58
2023-05-15T09:47:24.217Z,19.73
2023-05-15T09:50:36.526Z,19.42
2023-05-15T09:53:38.816Z,19.34
2023-05-15T09:56:43.370Z,19.14
2023-05-15T09:59:56.302Z,19.63
2023-05-15T10:02:59.499Z,19.80
2023-05-15T10:06:03.561Z,19.89
2023-05-15T10:09:06.415Z,19.66
2023-05-15T10:12:09.591Z,19.53
2023-05-15T10:15:12.261Z,19.49
2023-05-15T10:18:14.886Z,19.48
2023-05-15T10:21:18.427Z,19.45
2023-05-15T10:24:21.501Z,19.45
2023-05-15T10:27:24.024Z,19.54
2023-05-15T10:30:26.936Z,19.44
2023-05-15T10:33:29.905Z,19.22
2023-05-15T10:36:33.310Z,19.16
2023-05-15T10:39:37.631Z,19.01
2023-05-15T10:42:45.347Z,18.71
2023-05-15T10:45:48.223Z,18.61
2023-05-15T10:48:51.704Z,18.46
2023-05-15T10:51:53.993Z,18.37
2023-05-15T10:54:56.933Z,18.33
2023-05-15T10:57:59.435Z,18.26
2023-05-15T11:01:01.784Z,18.21
2023-05-15T11:04:11.695Z,18.20
2023-05-15T11:07:15.932Z,18.14
2023-05-15T11:10:30.389Z,18.18
2023-05-15T11:14:08.084Z,18.16
2023-05-15T11:17:15.428Z,18.17
2023-05-15T11:20:17.918Z,18.15
2023-05-15T11:23:23.813Z,18.23
2023-05-15T11:26:35.126Z,18.42
2023-05-15T11:29:37.351Z,18.68
2023-05-15T11:32:50.632Z,19.21
2023-05-15T11:36:00.154Z,19.35
2023-05-15T11:39:02.658Z,19.70
2023-05-15T11:42:12.184Z,19.60
2023-05-15T11:45:14.942Z,19.42
2023-05-15T11:48:18.271Z,19.30
2023-05-15T11:51:23.257Z,19.12
2023-05-15T11:54:26.640Z,19.08
2023-05-15T11:57:29.656Z,19.24
2023-05-15T12:00:32.140Z,19.25
2023-05-15T12:03:36.179Z,19.23
2023-05-15T12:06:38.753Z,19.14
2023-05-15T12:09:42.148Z,19.45
2023-05-15T12:12:46.176Z,19.49
2023-05-15T12:15:48.532Z,19.45
2023-05-15T12:18:50.812Z,19.44
2023-05-15T12:21:53.094Z,19.31
2023-05-15T12:24:58.722Z,19.15
2023-05-15T12:28:02.469Z,19.17
2023-05-15T12:31:05.012Z,19.00
2023-05-15T12:34:07.396Z,18.97
2023-05-15T12:37:13.641Z,18.95
2023-05-15T12:40:20.874Z,18.93
2023-05-15T12:43:29.489Z,18.87
2023-05-15T12:46:32.393Z,18.79
2023-05-15T12:49:40.979Z,18.74
2023-05-15T12:52:57.272Z,18.69
2023-05-15T12:55:59.544Z,18.63
2023-05-15T12:59:02.229Z,18.54
2023-05-15T13:02:05.133Z,18.50
2023-05-15T13:05:07.791Z,18.48
2023-05-15T13:08:15.590Z,18.48
2023-05-15T13:11:18.316Z,18.45
2023-05-15T13:14:21.156Z,18.46
2023-05-15T13:17:23.364Z,18.44
2023-05-15T13:20:27.196Z,18.38
2023-05-15T13:23:29.728Z,18.36
2023-05-15T13:26:32.108Z,18.40
2023-05-15T13:29:34.664Z,18.51
2023-05-15T13:32:36.981Z,18.92
2023-05-15T13:35:40.009Z,19.11
2023-05-15T13:38:42.629Z,19.14
2023-05-15T13:41:44.998Z,19.08
2023-05-15T13:44:47.236Z,19.06
2023-05-15T13:47:50.677Z,19.05
2023-05-15T13:50:53.123Z,18.93
2023-05-15T13:53:55.544Z,18.90
2023-05-15T13:56:57.809Z,18.78
2023-05-15T14:00:00.272Z,18.77
2023-05-15T14:03:05.791Z,18.73
2023-05-15T14:06:09.225Z,18.70
2023-05-15T14:09:11.582Z,18.74
2023-05-15T14:12:13.924Z,18.68
2023-05-15T14:15:16.556Z,18.63
2023-05-15T14:18:18.854Z,18.49
2023-05-15T14:21:21.125Z,18.39
2023-05-15T14:24:23.368Z,18.29
2023-05-15T14:27:25.692Z,18.11
2023-05-15T14:30:28.074Z,17.99
2023-05-15T14:33:30.477Z,17.97
2023-05-15T14:36:32.888Z,17.99
2023-05-15T14:39:35.164Z,17.94
2023-05-15T14:42:37.417Z,17.92
2023-05-15T14:45:39.592Z,17.98
2023-05-15T14:48:41.784Z,17.96
2023-05-15T14:51:44.044Z,17.91
2023-05-15T14:54:53.856Z,17.89
2023-05-15T14:58:03.394Z,17.87
2023-05-15T15:01:05.819Z,17.86
2023-05-15T15:04:08.285Z,17.86
2023-05-15T15:07:11.654Z,17.83
2023-05-15T15:10:13.930Z,17.81
2023-05-15T15:13:17.156Z,17.82
2023-05-15T15:16:19.601Z,17.85
2023-05-15T15:19:22.106Z,17.86
2023-05-15T15:22:24.388Z,17.91
2023-05-15T15:25:26.772Z,17.91
2023-05-15T15:28:33.532Z,17.87
2023-05-15T15:31:36.007Z,17.94
2023-05-15T15:34:38.258Z,18.02
2023-05-15T15:37:40.768Z,18.04
2023-05-15T15:40:43.051Z,18.05
2023-05-15T15:43:45.424Z,18.04
2023-05-15T15:46:47.659Z,18.12
2023-05-15T15:49:53.493Z,18.09
2023-05-15T15:52:55.794Z,18.10
2023-05-15T15:56:01.463Z,18.04
2023-05-15T15:59:04.001Z,18.03
2023-05-15T16:02:07.141Z,18.02
2023-05-15T16:05:09.861Z,17.96
2023-05-15T16:08:12.118Z,17.97
2023-05-15T16:11:15.758Z,17.95
2023-05-15T16:14:19.430Z,17.96
2023-05-15T16:17:22.780Z,17.98
2023-05-15T16:20:25.417Z,17.88
2023-05-15T16:23:27.937Z,17.92
2023-05-15T16:26:30.871Z,17.95
2023-05-15T16:29:33.141Z,17.92
2023-05-15T16:32:35.642Z,17.85
2023-05-15T16:35:38.072Z,17.79
2023-05-15T16:38:40.376Z,17.85
2023-05-15T16:41:42.718Z,17.79
2023-05-15T16:44:45.109Z,17.81
2023-05-15T16:47:47.508Z,17.75
2023-05-15T16:50:49.781Z,17.75
2023-05-15T16:53:53.884Z,17.71
2023-05-15T16:56:56.363Z,17.70
2023-05-15T16:59:58.669Z,17.71
2023-05-15T17:03:01.137Z,17.65
2023-05-15T17:06:03.732Z,17.55
2023-05-15T17:09:06.035Z,17.49
2023-05-15T17:12:08.361Z,17.53
2023-05-15T17:15:11.231Z,17.52
2023-05-15T17:18:13.486Z,17.47
2023-05-15T17:21:15.823Z,17.48
2023-05-15T17:24:18.055Z,17.36
2023-05-15T17:27:20.576Z,17.39
2023-05-15T17:30:22.905Z,17.37
2023-05-15T17:33:25.179Z,17.36
2023-05-15T17:36:27.423Z,17.25
2023-05-15T17:39:29.690Z,17.37
2023-05-15T17:42:32.017Z,17.32
2023-05-15T17:45:34.320Z,17.27
2023-05-15T17:48:36.594Z,17.24
2023-05-15T17:51:38.843Z,17.28
2023-05-15T17:54:41.200Z,17.18
2023-05-15T17:57:43.791Z,17.13
2023-05-15T18:00:46.148Z,17.16
2023-05-15T18:03:48.603Z,17.17
2023-05-15T18:06:51.251Z,17.19
2023-05-15T18:09:53.468Z,17.06
2023-05-15T18:12:55.849Z,16.99
2023-05-15T18:15:58.216Z,17.01
2023-05-15T18:19:00.740Z,16.97
2023-05-15T18:22:03.436Z,16.96
2023-05-15T18:25:06.069Z,16.90
2023-05-15T18:28:08.409Z,16.84
2023-05-15T18:31:10.719Z,16.82
2023-05-15T18:34:12.941Z,16.75
2023-05-15T18:37:15.205Z,16.73
2023-05-15T18:40:17.632Z,16.72
2023-05-15T18:43:19.870Z,16.72
2023-05-15T18:46:22.150Z,16.60
2023-05-15T18:49:24.538Z,16.52
2023-05-15T18:52:27.034Z,16.53
2023-05-15T18:55:30.223Z,16.54
2023-05-15T18:58:32.542Z,16.49
2023-05-15T19:01:34.901Z,16.51
2023-05-15T19:04:37.244Z,16.41
2023-05-15T19:07:39.682Z,16.43
2023-05-15T19:10:47.971Z,16.40
2023-05-15T19:13:50.499Z,16.25
2023-05-15T19:16:52.817Z,16.26
2023-05-15T19:19:55.158Z,16.32
2023-05-15T19:22:57.382Z,16.34
2023-05-15T19:25:59.681Z,16.34
2023-05-15T19:29:01.988Z,16.28
2023-05-15T19:32:04.596Z,16.26
2023-05-15T19:35:07.067Z,16.21
2023-05-15T19:38:09.376Z,16.14
2023-05-15T19:41:12.400Z,16.01
2023-05-15T19:44:16.302Z,16.06
2023-05-15T19:47:18.569Z,16.00
2023-05-15T19:50:21.112Z,15.97
2023-05-15T19:53:24.028Z,16.03
2023-05-15T19:56:26.279Z,16.03
2023-05-15T19:59:29.092Z,16.02
2023-05-15T20:02:31.415Z,15.95
2023-05-15T20:05:33.951Z,15.99
2023-05-15T20:08:36.361Z,16.01
2023-05-15T20:11:38.736Z,16.05
2023-05-15T20:14:42.078Z,16.05
2023-05-15T20:17:44.568Z,16.02
2023-05-15T20:20:47.134Z,15.94
2023-05-15T20:23:49.381Z,15.90
2023-05-15T20:26:51.700Z,15.93
2023-05-15T20:29:53.919Z,15.90
2023-05-15T20:32:56.312Z,15.88
2023-05-15T20:36:00.275Z,15.90
2023-05-15T20:39:05.801Z,15.84
2023-05-15T20:42:08.389Z,15.92
2023-05-15T20:45:11.083Z,15.89
2023-05-15T20:48:13.924Z,15.80
2023-05-15T20:51:16.320Z,15.88
2023-05-15T20:54:18.809Z,15.87
2023-05-15T20:57:21.456Z,15.91
2023-05-15T21:00:26.612Z,15.93
2023-05-15T21:03:29.511Z,15.82
2023-05-15T21:06:31.914Z,15.80
2023-05-15T21:09:37.615Z,15.78
2023-05-15T21:12:40.761Z,15.72
2023-05-15T21:15:43.360Z,15.83
2023-05-15T21:18:45.717Z,15.79
2023-05-15T21:21:48.032Z,15.84
2023-05-15T21:24:50.750Z,15.76
2023-05-15T21:27:53.063Z,15.78
2023-05-15T21:30:55.459Z,15.75
2023-05-15T21:33:57.983Z,15.73
2023-05-15T21:37:00.269Z,15.70
2023-05-15T21:40:02.603Z,15.74
2023-05-15T21:43:04.915Z,15.72
2023-05-15T21:46:07.250Z,15.79
2023-05-15T21:49:09.506Z,15.80
2023-05-15T21:52:11.742Z,15.77
2023-05-15T21:55:14.032Z,15.74
2023-05-15T21:58:16.386Z,15.76
2023-05-15T22:01:18.852Z,15.79
2023-05-15T22:04:21.271Z,15.72
2023-05-15T22:07:23.540Z,15.70
2023-05-15T22:10:26.157Z,15.73
2023-05-15T22:13:28.619Z,15.67
2023-05-15T22:16:31.137Z,15.66
2023-05-15T22:19:34.202Z,15.70
2023-05-15T22:22:36.666Z,15.76
2023-05-15T22:25:39.023Z,15.77
2023-05-15T22:28:42.418Z,15.67
2023-05-15T22:31:44.843Z,15.76
2023-05-15T22:34:47.151Z,15.71
2023-05-15T22:37:49.497Z,15.71
2023-05-15T22:40:52.633Z,15.71
2023-05-15T22:43:54.970Z,15.65
2023-05-15T22:46:57.377Z,15.67
2023-05-15T22:49:59.731Z,15.78
2023-05-15T22:53:02.062Z,15.80
2023-05-15T22:56:04.392Z,15.77
2023-05-15T22:59:07.012Z,15.83
2023-05-15T23:02:09.253Z,15.78
2023-05-15T23:05:11.504Z,15.79
2023-05-15T23:08:13.904Z,15.86
2023-05-15T23:11:16.321Z,15.81
2023-05-15T23:14:18.573Z,15.78
2023-05-15T23:17:20.919Z,15.84
2023-05-15T23:20:23.186Z,15.71
2023-05-15T23:23:25.757Z,15.75
2023-05-15T23:26:28.042Z,15.81
2023-05-15T23:29:30.352Z,15.74
2023-05-15T23:32:32.813Z,15.69
2023-05-15T23:35:35.206Z,15.76
2023-05-15T23:38:37.473Z,15.75
2023-05-15T23:41:39.749Z,15.65
2023-05-15T23:44:42.097Z,15.72
2023-05-15T23:47:46.649Z,15.77
2023-05-15T23:50:49.509Z,15.69
2023-05-15T23:53:51.877Z,15.68
2023-05-15T23:56:54.143Z,15.69
2023-05-15T23:59:56.568Z,15.70
